sensor_id;sensor_type;location;lat;lon;timestamp;temperature;humidity
16247;DHT22;8231;50.866;7.944;2024-03-08T00:00:15;-0.90;99.90
16247;DHT22;8231;50.866;7.944;2024-03-08T00:02:46;-0.90;99.90
16247;DHT22;8231;50.866;7.944;2024-03-08T00:05:17;-0.90;99.90
16247;DHT22;8231;50.866;7.944;2024-03-08T00:07:46;-0.90;99.90
16247;DHT22;8231;50.866;7.944;2024-03-08T00:10:14;-0.90;99.90
16247;DHT22;8231;50.866;7.944;2024-03-08T00:12:45;-0.80;99.90
16247;DHT22;8231;50.866;7.944;2024-03-08T00:15:15;-0.80;99.90
16247;DHT22;8231;50.866;7.944;2024-03-08T00:17:46;-0.80;99.90
16247;DHT22;8231;50.866;7.944;2024-03-08T00:20:16;-0.80;99.90
16247;DHT22;8231;50.866;7.944;2024-03-08T00:22:46;-0.70;99.90
16247;DHT22;8231;50.866;7.944;2024-03-08T00:25:15;-0.60;99.90
16247;DHT22;8231;50.866;7.944;2024-03-08T00:27:45;-0.60;99.90
16247;DHT22;8231;50.866;7.944;2024-03-08T00:30:16;-0.60;99.90
16247;DHT22;8231;50.866;7.944;2024-03-08T00:32:45;-0.60;99.90
16247;DHT22;8231;50.866;7.944;2024-03-08T00:35:14;-0.60;99.90
16247;DHT22;8231;50.866;7.944;2024-03-08T00:37:42;-0.50;99.90
16247;DHT22;8231;50.866;7.944;2024-03-08T00:40:14;-0.50;99.90
16247;DHT22;8231;50.866;7.944;2024-03-08T00:42:42;-0.50;99.90
16247;DHT22;8231;50.866;7.944;2024-03-08T00:45:12;-0.50;99.90
16247;DHT22;8231;50.866;7.944;2024-03-08T00:47:40;-0.50;99.90
16247;DHT22;8231;50.866;7.944;2024-03-08T00:50:11;-0.50;99.90
16247;DHT22;8231;50.866;7.944;2024-03-08T00:52:40;-0.50;99.90
16247;DHT22;8231;50.866;7.944;2024-03-08T00:55:08;-0.50;99.90
16247;DHT22;8231;50.866;7.944;2024-03-08T00:57:38;-0.50;99.90
16247;DHT22;8231;50.866;7.944;2024-03-08T01:00:08;-0.50;99.90
16247;DHT22;8231;50.866;7.944;2024-03-08T01:02:41;-0.40;99.90
16247;DHT22;8231;50.866;7.944;2024-03-08T01:05:09;-0.40;99.90
16247;DHT22;8231;50.866;7.944;2024-03-08T01:07:37;-0.40;99.90
16247;DHT22;8231;50.866;7.944;2024-03-08T01:10:06;-0.40;99.90
16247;DHT22;8231;50.866;7.944;2024-03-08T01:12:37;-0.30;99.90
16247;DHT22;8231;50.866;7.944;2024-03-08T01:15:06;-0.30;99.90
16247;DHT22;8231;50.866;7.944;2024-03-08T01:17:34;-0.30;99.90
16247;DHT22;8231;50.866;7.944;2024-03-08T01:20:05;-0.30;99.90
16247;DHT22;8231;50.866;7.944;2024-03-08T01:22:33;-0.20;99.90
16247;DHT22;8231;50.866;7.944;2024-03-08T01:25:02;-0.20;99.90
16247;DHT22;8231;50.866;7.944;2024-03-08T01:27:31;-0.10;99.90
16247;DHT22;8231;50.866;7.944;2024-03-08T01:30:04;-0.10;99.90
16247;DHT22;8231;50.866;7.944;2024-03-08T01:32:33;-0.10;99.90
16247;DHT22;8231;50.866;7.944;2024-03-08T01:35:01;-0.10;99.90
16247;DHT22;8231;50.866;7.944;2024-03-08T01:37:31;-0.10;99.90
16247;DHT22;8231;50.866;7.944;2024-03-08T01:39:59;-0.10;99.90
16247;DHT22;8231;50.866;7.944;2024-03-08T01:42:28;0.00;99.90
16247;DHT22;8231;50.866;7.944;2024-03-08T01:44:56;-0.10;99.90
16247;DHT22;8231;50.866;7.944;2024-03-08T01:47:25;0.00;99.90
16247;DHT22;8231;50.866;7.944;2024-03-08T01:49:53;0.00;99.90
16247;DHT22;8231;50.866;7.944;2024-03-08T01:52:21;0.00;99.90
16247;DHT22;8231;50.866;7.944;2024-03-08T01:54:53;0.00;99.90
16247;DHT22;8231;50.866;7.944;2024-03-08T01:57:22;0.00;99.90
16247;DHT22;8231;50.866;7.944;2024-03-08T01:59:50;0.00;99.90
16247;DHT22;8231;50.866;7.944;2024-03-08T02:02:21;0.00;99.90
16247;DHT22;8231;50.866;7.944;2024-03-08T02:04:50;0.00;99.90
16247;DHT22;8231;50.866;7.944;2024-03-08T02:07:20;0.00;99.90
16247;DHT22;8231;50.866;7.944;2024-03-08T02:09:49;0.00;99.90
16247;DHT22;8231;50.866;7.944;2024-03-08T02:12:20;0.00;99.90
16247;DHT22;8231;50.866;7.944;2024-03-08T02:14:48;0.00;99.90
16247;DHT22;8231;50.866;7.944;2024-03-08T02:17:16;0.00;99.90
16247;DHT22;8231;50.866;7.944;2024-03-08T02:19:45;0.00;99.90
16247;DHT22;8231;50.866;7.944;2024-03-08T02:22:15;0.00;99.90
16247;DHT22;8231;50.866;7.944;2024-03-08T02:24:43;0.00;99.90
16247;DHT22;8231;50.866;7.944;2024-03-08T02:27:12;0.00;99.90
16247;DHT22;8231;50.866;7.944;2024-03-08T02:29:40;0.00;99.90
16247;DHT22;8231;50.866;7.944;2024-03-08T02:32:11;0.00;99.90
16247;DHT22;8231;50.866;7.944;2024-03-08T02:34:39;0.00;99.90
16247;DHT22;8231;50.866;7.944;2024-03-08T02:37:07;-0.10;99.90
16247;DHT22;8231;50.866;7.944;2024-03-08T02:39:37;-0.10;99.90
16247;DHT22;8231;50.866;7.944;2024-03-08T02:42:05;-0.10;99.90
16247;DHT22;8231;50.866;7.944;2024-03-08T02:44:34;-0.10;99.90
16247;DHT22;8231;50.866;7.944;2024-03-08T02:47:02;-0.10;99.90
16247;DHT22;8231;50.866;7.944;2024-03-08T02:49:31;-0.10;99.90
16247;DHT22;8231;50.866;7.944;2024-03-08T02:51:59;-0.10;99.90
16247;DHT22;8231;50.866;7.944;2024-03-08T02:54:27;-0.10;99.90
16247;DHT22;8231;50.866;7.944;2024-03-08T02:56:56;-0.10;99.90
16247;DHT22;8231;50.866;7.944;2024-03-08T02:59:24;-0.20;99.90
16247;DHT22;8231;50.866;7.944;2024-03-08T03:01:53;-0.20;99.90
16247;DHT22;8231;50.866;7.944;2024-03-08T03:04:21;-0.20;99.90
16247;DHT22;8231;50.866;7.944;2024-03-08T03:06:49;-0.20;99.90
16247;DHT22;8231;50.866;7.944;2024-03-08T03:09:18;-0.20;99.90
16247;DHT22;8231;50.866;7.944;2024-03-08T03:11:50;-0.30;99.90
16247;DHT22;8231;50.866;7.944;2024-03-08T03:14:20;-0.30;99.90
16247;DHT22;8231;50.866;7.944;2024-03-08T03:16:48;-0.30;99.90
16247;DHT22;8231;50.866;7.944;2024-03-08T03:19:16;-0.40;99.90
16247;DHT22;8231;50.866;7.944;2024-03-08T03:21:45;-0.40;99.90
16247;DHT22;8231;50.866;7.944;2024-03-08T03:24:14;-0.40;99.90
16247;DHT22;8231;50.866;7.944;2024-03-08T03:26:43;-0.40;99.90
16247;DHT22;8231;50.866;7.944;2024-03-08T03:29:12;-0.50;99.90
16247;DHT22;8231;50.866;7.944;2024-03-08T03:31:42;-0.50;99.90
16247;DHT22;8231;50.866;7.944;2024-03-08T03:34:12;-0.50;99.90
16247;DHT22;8231;50.866;7.944;2024-03-08T03:36:40;-0.50;99.90
16247;DHT22;8231;50.866;7.944;2024-03-08T03:39:09;-0.60;99.90
16247;DHT22;8231;50.866;7.944;2024-03-08T03:41:42;-0.50;99.90
16247;DHT22;8231;50.866;7.944;2024-03-08T03:44:13;-0.50;99.90
16247;DHT22;8231;50.866;7.944;2024-03-08T03:46:43;-0.60;99.90
16247;DHT22;8231;50.866;7.944;2024-03-08T03:49:12;-0.50;99.90
16247;DHT22;8231;50.866;7.944;2024-03-08T03:51:40;-0.50;99.90
16247;DHT22;8231;50.866;7.944;2024-03-08T03:54:08;-0.60;99.90
16247;DHT22;8231;50.866;7.944;2024-03-08T03:56:36;-0.60;99.90
16247;DHT22;8231;50.866;7.944;2024-03-08T03:59:06;-0.60;99.90
16247;DHT22;8231;50.866;7.944;2024-03-08T04:01:34;-0.60;99.90
16247;DHT22;8231;50.866;7.944;2024-03-08T04:04:06;-0.60;99.90
16247;DHT22;8231;50.866;7.944;2024-03-08T04:06:35;-0.70;99.90
16247;DHT22;8231;50.866;7.944;2024-03-08T04:09:03;-0.70;99.90
16247;DHT22;8231;50.866;7.944;2024-03-08T04:11:32;-0.70;99.90
16247;DHT22;8231;50.866;7.944;2024-03-08T04:14:00;-0.80;99.90
16247;DHT22;8231;50.866;7.944;2024-03-08T04:16:28;-0.90;99.90
16247;DHT22;8231;50.866;7.944;2024-03-08T04:18:56;-0.90;99.90
16247;DHT22;8231;50.866;7.944;2024-03-08T04:21:26;-1.00;99.90
16247;DHT22;8231;50.866;7.944;2024-03-08T04:23:54;-1.10;99.90
16247;DHT22;8231;50.866;7.944;2024-03-08T04:26:22;-1.20;99.90
16247;DHT22;8231;50.866;7.944;2024-03-08T04:28:50;-1.30;99.90
16247;DHT22;8231;50.866;7.944;2024-03-08T04:31:19;-1.40;99.90
16247;DHT22;8231;50.866;7.944;2024-03-08T04:33:48;-1.40;99.90
16247;DHT22;8231;50.866;7.944;2024-03-08T04:36:16;-1.50;99.90
16247;DHT22;8231;50.866;7.944;2024-03-08T04:38:46;-1.50;99.90
16247;DHT22;8231;50.866;7.944;2024-03-08T04:41:14;-1.60;99.90
16247;DHT22;8231;50.866;7.944;2024-03-08T04:43:43;-1.70;99.90
16247;DHT22;8231;50.866;7.944;2024-03-08T04:46:11;-1.70;99.90
16247;DHT22;8231;50.866;7.944;2024-03-08T04:48:39;-1.80;99.90
16247;DHT22;8231;50.866;7.944;2024-03-08T04:51:09;-1.80;99.90
16247;DHT22;8231;50.866;7.944;2024-03-08T04:53:38;-1.90;99.90
16247;DHT22;8231;50.866;7.944;2024-03-08T04:56:08;-1.90;99.90
16247;DHT22;8231;50.866;7.944;2024-03-08T04:58:37;-2.00;99.90
16247;DHT22;8231;50.866;7.944;2024-03-08T05:01:05;-2.10;99.90
16247;DHT22;8231;50.866;7.944;2024-03-08T05:03:37;-2.10;99.90
16247;DHT22;8231;50.866;7.944;2024-03-08T05:06:06;-2.20;99.90
16247;DHT22;8231;50.866;7.944;2024-03-08T05:08:34;-2.20;99.90
16247;DHT22;8231;50.866;7.944;2024-03-08T05:11:03;-2.20;99.90
16247;DHT22;8231;50.866;7.944;2024-03-08T05:13:35;-2.20;99.90
16247;DHT22;8231;50.866;7.944;2024-03-08T05:16:04;-2.20;99.90
16247;DHT22;8231;50.866;7.944;2024-03-08T05:18:34;-2.20;99.90
16247;DHT22;8231;50.866;7.944;2024-03-08T05:21:03;-2.30;99.90
16247;DHT22;8231;50.866;7.944;2024-03-08T05:23:31;-2.30;99.90
16247;DHT22;8231;50.866;7.944;2024-03-08T05:26:01;-2.30;99.90
16247;DHT22;8231;50.866;7.944;2024-03-08T05:28:29;-2.30;99.90
16247;DHT22;8231;50.866;7.944;2024-03-08T05:30:59;-2.30;99.90
16247;DHT22;8231;50.866;7.944;2024-03-08T05:33:27;-2.30;99.90
16247;DHT22;8231;50.866;7.944;2024-03-08T05:35:55;-2.40;99.90
16247;DHT22;8231;50.866;7.944;2024-03-08T05:38:23;-2.40;99.90
16247;DHT22;8231;50.866;7.944;2024-03-08T05:40:51;-2.40;99.90
16247;DHT22;8231;50.866;7.944;2024-03-08T05:43:19;-2.40;99.90
16247;DHT22;8231;50.866;7.944;2024-03-08T05:45:47;-2.40;99.90
16247;DHT22;8231;50.866;7.944;2024-03-08T05:48:17;-2.40;99.90
16247;DHT22;8231;50.866;7.944;2024-03-08T05:50:45;-2.30;99.90
16247;DHT22;8231;50.866;7.944;2024-03-08T05:53:14;-2.20;99.90
16247;DHT22;8231;50.866;7.944;2024-03-08T05:55:42;-2.10;99.90
16247;DHT22;8231;50.866;7.944;2024-03-08T05:58:10;-2.00;99.90
16247;DHT22;8231;50.866;7.944;2024-03-08T06:00:38;-1.90;99.90
16247;DHT22;8231;50.866;7.944;2024-03-08T06:03:06;-1.90;99.90
16247;DHT22;8231;50.866;7.944;2024-03-08T06:05:36;-1.90;99.90
16247;DHT22;8231;50.866;7.944;2024-03-08T06:08:08;-1.80;99.90
16247;DHT22;8231;50.866;7.944;2024-03-08T06:10:36;-1.80;99.90
16247;DHT22;8231;50.866;7.944;2024-03-08T06:13:06;-1.80;99.90
16247;DHT22;8231;50.866;7.944;2024-03-08T06:15:34;-1.70;99.90
16247;DHT22;8231;50.866;7.944;2024-03-08T06:18:03;-1.60;99.90
16247;DHT22;8231;50.866;7.944;2024-03-08T06:20:33;-1.60;99.90
16247;DHT22;8231;50.866;7.944;2024-03-08T06:23:02;-1.50;99.90
16247;DHT22;8231;50.866;7.944;2024-03-08T06:25:31;-1.40;99.90
16247;DHT22;8231;50.866;7.944;2024-03-08T06:27:59;-1.40;99.90
16247;DHT22;8231;50.866;7.944;2024-03-08T06:30:28;-1.40;99.90
16247;DHT22;8231;50.866;7.944;2024-03-08T06:32:56;-1.30;99.90
16247;DHT22;8231;50.866;7.944;2024-03-08T06:35:24;-1.20;99.90
16247;DHT22;8231;50.866;7.944;2024-03-08T06:37:52;-1.20;99.90
16247;DHT22;8231;50.866;7.944;2024-03-08T06:40:22;-1.20;99.90
16247;DHT22;8231;50.866;7.944;2024-03-08T06:42:50;-1.10;99.90
16247;DHT22;8231;50.866;7.944;2024-03-08T06:45:18;-1.20;99.90
16247;DHT22;8231;50.866;7.944;2024-03-08T06:47:48;-1.10;99.90
16247;DHT22;8231;50.866;7.944;2024-03-08T06:50:17;-1.00;99.90
16247;DHT22;8231;50.866;7.944;2024-03-08T06:52:45;-0.90;99.90
16247;DHT22;8231;50.866;7.944;2024-03-08T06:55:17;-0.80;99.90
16247;DHT22;8231;50.866;7.944;2024-03-08T06:57:47;-0.70;99.90
16247;DHT22;8231;50.866;7.944;2024-03-08T07:00:15;-0.60;99.90
16247;DHT22;8231;50.866;7.944;2024-03-08T07:02:47;-0.60;99.90
16247;DHT22;8231;50.866;7.944;2024-03-08T07:05:16;-0.50;99.90
16247;DHT22;8231;50.866;7.944;2024-03-08T07:07:45;-0.50;99.90
16247;DHT22;8231;50.866;7.944;2024-03-08T07:10:15;-0.40;99.90
16247;DHT22;8231;50.866;7.944;2024-03-08T07:12:44;-0.20;99.90
16247;DHT22;8231;50.866;7.944;2024-03-08T07:15:15;0.00;99.90
16247;DHT22;8231;50.866;7.944;2024-03-08T07:17:46;0.20;99.90
16247;DHT22;8231;50.866;7.944;2024-03-08T07:20:15;0.40;99.90
16247;DHT22;8231;50.866;7.944;2024-03-08T07:22:45;0.40;99.90
16247;DHT22;8231;50.866;7.944;2024-03-08T07:25:15;0.50;99.90
16247;DHT22;8231;50.866;7.944;2024-03-08T07:27:50;0.60;99.90
16247;DHT22;8231;50.866;7.944;2024-03-08T07:30:21;0.60;99.90
16247;DHT22;8231;50.866;7.944;2024-03-08T07:33:07;0.70;99.90
16247;DHT22;8231;50.866;7.944;2024-03-08T07:35:39;0.70;99.90
16247;DHT22;8231;50.866;7.944;2024-03-08T07:38:08;0.80;99.90
16247;DHT22;8231;50.866;7.944;2024-03-08T07:40:37;0.80;99.90
16247;DHT22;8231;50.866;7.944;2024-03-08T07:43:07;0.90;99.90
16247;DHT22;8231;50.866;7.944;2024-03-08T07:45:37;1.00;99.90
16247;DHT22;8231;50.866;7.944;2024-03-08T07:48:06;1.00;99.90
16247;DHT22;8231;50.866;7.944;2024-03-08T07:50:36;1.10;99.90
16247;DHT22;8231;50.866;7.944;2024-03-08T07:53:06;1.20;99.90
16247;DHT22;8231;50.866;7.944;2024-03-08T07:55:34;1.30;99.90
16247;DHT22;8231;50.866;7.944;2024-03-08T07:58:02;1.40;99.90
16247;DHT22;8231;50.866;7.944;2024-03-08T08:00:30;1.50;99.90
16247;DHT22;8231;50.866;7.944;2024-03-08T08:03:00;1.50;99.90
16247;DHT22;8231;50.866;7.944;2024-03-08T08:05:29;2.30;99.90
16247;DHT22;8231;50.866;7.944;2024-03-08T08:07:59;1.70;99.90
16247;DHT22;8231;50.866;7.944;2024-03-08T08:10:29;1.90;99.90
16247;DHT22;8231;50.866;7.944;2024-03-08T08:12:59;2.00;99.90
16247;DHT22;8231;50.866;7.944;2024-03-08T08:15:29;2.10;99.90
16247;DHT22;8231;50.866;7.944;2024-03-08T08:17:59;2.30;99.90
16247;DHT22;8231;50.866;7.944;2024-03-08T08:20:27;2.50;99.90
16247;DHT22;8231;50.866;7.944;2024-03-08T08:22:56;2.60;99.90
16247;DHT22;8231;50.866;7.944;2024-03-08T08:25:26;2.70;99.90
16247;DHT22;8231;50.866;7.944;2024-03-08T08:27:54;2.80;99.90
16247;DHT22;8231;50.866;7.944;2024-03-08T08:30:22;3.10;99.90
16247;DHT22;8231;50.866;7.944;2024-03-08T08:32:51;3.50;99.90
16247;DHT22;8231;50.866;7.944;2024-03-08T08:35:20;3.90;99.90
16247;DHT22;8231;50.866;7.944;2024-03-08T08:37:51;4.10;99.90
16247;DHT22;8231;50.866;7.944;2024-03-08T08:40:19;4.30;99.90
16247;DHT22;8231;50.866;7.944;2024-03-08T08:42:49;4.50;99.90
16247;DHT22;8231;50.866;7.944;2024-03-08T08:45:18;4.60;99.90
16247;DHT22;8231;50.866;7.944;2024-03-08T08:47:52;4.60;99.90
16247;DHT22;8231;50.866;7.944;2024-03-08T08:50:23;4.60;99.90
16247;DHT22;8231;50.866;7.944;2024-03-08T08:52:52;4.50;99.90
16247;DHT22;8231;50.866;7.944;2024-03-08T08:55:21;4.60;99.90
16247;DHT22;8231;50.866;7.944;2024-03-08T08:57:53;4.60;99.90
16247;DHT22;8231;50.866;7.944;2024-03-08T09:00:21;4.60;99.90
16247;DHT22;8231;50.866;7.944;2024-03-08T09:02:55;4.70;99.90
16247;DHT22;8231;50.866;7.944;2024-03-08T09:05:26;4.80;99.90
16247;DHT22;8231;50.866;7.944;2024-03-08T09:07:55;4.90;99.90
16247;DHT22;8231;50.866;7.944;2024-03-08T09:10:23;4.90;99.90
16247;DHT22;8231;50.866;7.944;2024-03-08T09:12:57;5.10;99.90
16247;DHT22;8231;50.866;7.944;2024-03-08T09:15:26;5.30;99.90
16247;DHT22;8231;50.866;7.944;2024-03-08T09:17:55;5.30;99.90
16247;DHT22;8231;50.866;7.944;2024-03-08T09:20:25;5.60;99.90
16247;DHT22;8231;50.866;7.944;2024-03-08T09:22:54;5.70;99.90
16247;DHT22;8231;50.866;7.944;2024-03-08T09:25:22;5.90;99.90
16247;DHT22;8231;50.866;7.944;2024-03-08T09:27:50;6.10;99.90
16247;DHT22;8231;50.866;7.944;2024-03-08T09:30:18;6.30;99.90
16247;DHT22;8231;50.866;7.944;2024-03-08T09:32:49;6.40;99.90
16247;DHT22;8231;50.866;7.944;2024-03-08T09:35:18;6.70;99.90
16247;DHT22;8231;50.866;7.944;2024-03-08T09:37:48;7.00;99.90
16247;DHT22;8231;50.866;7.944;2024-03-08T09:40:18;6.90;99.90
16247;DHT22;8231;50.866;7.944;2024-03-08T09:42:48;6.90;99.90
16247;DHT22;8231;50.866;7.944;2024-03-08T09:45:17;6.90;99.90
16247;DHT22;8231;50.866;7.944;2024-03-08T09:47:49;7.00;99.90
16247;DHT22;8231;50.866;7.944;2024-03-08T09:50:17;7.20;99.90
16247;DHT22;8231;50.866;7.944;2024-03-08T09:52:49;7.30;99.90
16247;DHT22;8231;50.866;7.944;2024-03-08T09:55:18;7.40;99.90
16247;DHT22;8231;50.866;7.944;2024-03-08T09:57:51;7.50;99.90
16247;DHT22;8231;50.866;7.944;2024-03-08T10:00:33;7.50;99.90
16247;DHT22;8231;50.866;7.944;2024-03-08T10:03:02;7.40;99.90
16247;DHT22;8231;50.866;7.944;2024-03-08T10:05:31;7.50;99.90
16247;DHT22;8231;50.866;7.944;2024-03-08T10:08:01;7.80;99.90
16247;DHT22;8231;50.866;7.944;2024-03-08T10:10:30;7.80;99.90
16247;DHT22;8231;50.866;7.944;2024-03-08T10:12:58;7.80;99.90
16247;DHT22;8231;50.866;7.944;2024-03-08T10:15:27;7.80;99.90
16247;DHT22;8231;50.866;7.944;2024-03-08T10:17:56;7.90;99.90
16247;DHT22;8231;50.866;7.944;2024-03-08T10:20:24;8.00;99.90
16247;DHT22;8231;50.866;7.944;2024-03-08T10:22:55;8.10;99.90
16247;DHT22;8231;50.866;7.944;2024-03-08T10:25:38;8.00;99.90
16247;DHT22;8231;50.866;7.944;2024-03-08T10:28:07;8.10;99.90
16247;DHT22;8231;50.866;7.944;2024-03-08T10:30:35;8.40;99.90
16247;DHT22;8231;50.866;7.944;2024-03-08T10:33:04;8.60;99.90
16247;DHT22;8231;50.866;7.944;2024-03-08T10:35:33;8.50;99.90
16247;DHT22;8231;50.866;7.944;2024-03-08T10:38:05;8.60;99.90
16247;DHT22;8231;50.866;7.944;2024-03-08T10:40:40;8.60;99.90
16247;DHT22;8231;50.866;7.944;2024-03-08T10:43:15;8.80;99.90
16247;DHT22;8231;50.866;7.944;2024-03-08T10:45:47;9.10;99.90
16247;DHT22;8231;50.866;7.944;2024-03-08T10:48:26;9.40;99.90
16247;DHT22;8231;50.866;7.944;2024-03-08T10:51:04;9.50;99.90
16247;DHT22;8231;50.866;7.944;2024-03-08T10:53:34;9.40;99.90
16247;DHT22;8231;50.866;7.944;2024-03-08T10:56:05;9.50;99.90
16247;DHT22;8231;50.866;7.944;2024-03-08T10:58:36;9.60;99.90
16247;DHT22;8231;50.866;7.944;2024-03-08T11:01:05;9.60;99.90
16247;DHT22;8231;50.866;7.944;2024-03-08T11:03:48;9.90;99.50
16247;DHT22;8231;50.866;7.944;2024-03-08T11:06:28;10.00;99.00
16247;DHT22;8231;50.866;7.944;2024-03-08T11:08:57;10.10;98.20
16247;DHT22;8231;50.866;7.944;2024-03-08T11:11:28;9.80;98.80
16247;DHT22;8231;50.866;7.944;2024-03-08T11:14:01;9.90;98.70
16247;DHT22;8231;50.866;7.944;2024-03-08T11:16:40;9.80;97.80
16247;DHT22;8231;50.866;7.944;2024-03-08T11:19:27;9.60;98.20
16247;DHT22;8231;50.866;7.944;2024-03-08T11:22:00;9.50;98.10
16247;DHT22;8231;50.866;7.944;2024-03-08T11:24:40;9.60;98.70
16247;DHT22;8231;50.866;7.944;2024-03-08T11:27:10;9.70;98.50
16247;DHT22;8231;50.866;7.944;2024-03-08T11:29:39;9.70;98.10
16247;DHT22;8231;50.866;7.944;2024-03-08T11:32:08;9.70;97.10
16247;DHT22;8231;50.866;7.944;2024-03-08T11:34:37;9.80;97.90
16247;DHT22;8231;50.866;7.944;2024-03-08T11:37:12;10.00;97.20
16247;DHT22;8231;50.866;7.944;2024-03-08T11:39:46;10.00;96.70
16247;DHT22;8231;50.866;7.944;2024-03-08T11:42:16;10.20;96.60
16247;DHT22;8231;50.866;7.944;2024-03-08T11:44:45;10.20;97.00
16247;DHT22;8231;50.866;7.944;2024-03-08T11:47:15;10.30;96.70
16247;DHT22;8231;50.866;7.944;2024-03-08T11:49:44;10.60;96.30
16247;DHT22;8231;50.866;7.944;2024-03-08T11:52:16;10.90;96.50
16247;DHT22;8231;50.866;7.944;2024-03-08T11:54:51;11.10;96.00
16247;DHT22;8231;50.866;7.944;2024-03-08T11:57:23;11.10;95.60
16247;DHT22;8231;50.866;7.944;2024-03-08T11:59:52;11.30;96.10
16247;DHT22;8231;50.866;7.944;2024-03-08T12:02:24;11.50;95.30
16247;DHT22;8231;50.866;7.944;2024-03-08T12:04:56;11.80;94.90
16247;DHT22;8231;50.866;7.944;2024-03-08T12:07:26;12.00;94.20
16247;DHT22;8231;50.866;7.944;2024-03-08T12:10:15;12.10;93.90
16247;DHT22;8231;50.866;7.944;2024-03-08T12:12:46;12.20;93.80
16247;DHT22;8231;50.866;7.944;2024-03-08T12:15:15;12.50;93.20
16247;DHT22;8231;50.866;7.944;2024-03-08T12:17:45;13.00;93.30
16247;DHT22;8231;50.866;7.944;2024-03-08T12:20:19;13.50;92.20
16247;DHT22;8231;50.866;7.944;2024-03-08T12:22:50;13.90;90.30
16247;DHT22;8231;50.866;7.944;2024-03-08T12:25:19;14.10;90.30
16247;DHT22;8231;50.866;7.944;2024-03-08T12:27:50;14.50;88.90
16247;DHT22;8231;50.866;7.944;2024-03-08T12:30:21;14.90;89.30
16247;DHT22;8231;50.866;7.944;2024-03-08T12:32:55;15.30;85.40
16247;DHT22;8231;50.866;7.944;2024-03-08T12:35:26;16.00;83.70
16247;DHT22;8231;50.866;7.944;2024-03-08T12:37:56;15.70;81.30
16247;DHT22;8231;50.866;7.944;2024-03-08T12:40:29;15.80;80.20
16247;DHT22;8231;50.866;7.944;2024-03-08T12:43:01;15.50;78.50
16247;DHT22;8231;50.866;7.944;2024-03-08T12:45:29;15.80;78.60
16247;DHT22;8231;50.866;7.944;2024-03-08T12:47:58;16.40;76.40
16247;DHT22;8231;50.866;7.944;2024-03-08T12:50:27;16.60;75.00
16247;DHT22;8231;50.866;7.944;2024-03-08T12:52:56;16.60;74.00
16247;DHT22;8231;50.866;7.944;2024-03-08T12:55:25;16.30;73.60
16247;DHT22;8231;50.866;7.944;2024-03-08T12:57:53;16.60;73.60
16247;DHT22;8231;50.866;7.944;2024-03-08T13:00:22;16.40;73.20
16247;DHT22;8231;50.866;7.944;2024-03-08T13:02:51;17.10;72.60
16247;DHT22;8231;50.866;7.944;2024-03-08T13:05:19;17.70;69.40
16247;DHT22;8231;50.866;7.944;2024-03-08T13:07:48;18.10;69.40
16247;DHT22;8231;50.866;7.944;2024-03-08T13:10:16;18.00;68.10
16247;DHT22;8231;50.866;7.944;2024-03-08T13:12:47;18.60;66.60
16247;DHT22;8231;50.866;7.944;2024-03-08T13:15:20;18.70;65.20
16247;DHT22;8231;50.866;7.944;2024-03-08T13:17:49;19.00;66.40
16247;DHT22;8231;50.866;7.944;2024-03-08T13:20:18;19.50;61.10
16247;DHT22;8231;50.866;7.944;2024-03-08T13:22:57;19.30;61.00
16247;DHT22;8231;50.866;7.944;2024-03-08T13:25:28;19.80;60.00
16247;DHT22;8231;50.866;7.944;2024-03-08T13:27:57;20.00;59.90
16247;DHT22;8231;50.866;7.944;2024-03-08T13:30:27;20.60;59.50
16247;DHT22;8231;50.866;7.944;2024-03-08T13:32:57;20.70;56.10
16247;DHT22;8231;50.866;7.944;2024-03-08T13:35:25;20.80;56.60
16247;DHT22;8231;50.866;7.944;2024-03-08T13:37:57;20.60;55.60
16247;DHT22;8231;50.866;7.944;2024-03-08T13:40:26;20.70;55.60
16247;DHT22;8231;50.866;7.944;2024-03-08T13:42:54;20.80;55.00
16247;DHT22;8231;50.866;7.944;2024-03-08T13:45:22;20.70;54.10
16247;DHT22;8231;50.866;7.944;2024-03-08T13:47:53;20.80;53.50
16247;DHT22;8231;50.866;7.944;2024-03-08T13:50:23;20.90;53.50
16247;DHT22;8231;50.866;7.944;2024-03-08T13:52:52;21.50;51.80
16247;DHT22;8231;50.866;7.944;2024-03-08T13:55:23;21.70;49.90
16247;DHT22;8231;50.866;7.944;2024-03-08T13:57:52;21.10;50.40
16247;DHT22;8231;50.866;7.944;2024-03-08T14:00:21;20.80;50.90
16247;DHT22;8231;50.866;7.944;2024-03-08T14:02:52;21.00;51.90
16247;DHT22;8231;50.866;7.944;2024-03-08T14:05:20;21.80;50.20
16247;DHT22;8231;50.866;7.944;2024-03-08T14:07:50;23.00;49.30
16247;DHT22;8231;50.866;7.944;2024-03-08T14:10:21;23.60;46.80
16247;DHT22;8231;50.866;7.944;2024-03-08T14:12:50;23.10;47.00
16247;DHT22;8231;50.866;7.944;2024-03-08T14:15:19;23.00;48.20
16247;DHT22;8231;50.866;7.944;2024-03-08T14:17:52;23.70;45.90
16247;DHT22;8231;50.866;7.944;2024-03-08T14:20:21;23.30;45.10
16247;DHT22;8231;50.866;7.944;2024-03-08T14:22:54;23.10;45.50
16247;DHT22;8231;50.866;7.944;2024-03-08T14:25:24;23.00;46.00
16247;DHT22;8231;50.866;7.944;2024-03-08T14:27:53;23.00;44.50
16247;DHT22;8231;50.866;7.944;2024-03-08T14:30:25;22.40;44.10
16247;DHT22;8231;50.866;7.944;2024-03-08T14:33:02;22.80;44.80
16247;DHT22;8231;50.866;7.944;2024-03-08T14:35:32;24.00;43.60
16247;DHT22;8231;50.866;7.944;2024-03-08T14:38:02;24.50;42.90
16247;DHT22;8231;50.866;7.944;2024-03-08T14:40:31;23.30;43.50
16247;DHT22;8231;50.866;7.944;2024-03-08T14:42:59;22.10;44.40
16247;DHT22;8231;50.866;7.944;2024-03-08T14:45:32;20.40;46.90
16247;DHT22;8231;50.866;7.944;2024-03-08T14:48:02;18.80;50.00
16247;DHT22;8231;50.866;7.944;2024-03-08T14:50:31;17.40;52.20
16247;DHT22;8231;50.866;7.944;2024-03-08T14:53:02;15.80;54.40
16247;DHT22;8231;50.866;7.944;2024-03-08T14:55:33;15.10;56.50
16247;DHT22;8231;50.866;7.944;2024-03-08T14:58:02;14.40;57.70
16247;DHT22;8231;50.866;7.944;2024-03-08T15:00:31;13.90;59.20
16247;DHT22;8231;50.866;7.944;2024-03-08T15:03:02;13.70;59.80
16247;DHT22;8231;50.866;7.944;2024-03-08T15:05:33;13.40;60.70
16247;DHT22;8231;50.866;7.944;2024-03-08T15:08:07;13.40;60.90
16247;DHT22;8231;50.866;7.944;2024-03-08T15:10:39;13.30;61.50
16247;DHT22;8231;50.866;7.944;2024-03-08T15:13:09;13.20;62.20
16247;DHT22;8231;50.866;7.944;2024-03-08T15:15:49;12.60;62.60
16247;DHT22;8231;50.866;7.944;2024-03-08T15:18:23;12.40;64.50
16247;DHT22;8231;50.866;7.944;2024-03-08T15:21:01;12.30;64.70
16247;DHT22;8231;50.866;7.944;2024-03-08T15:23:36;12.30;64.50
16247;DHT22;8231;50.866;7.944;2024-03-08T15:26:04;12.00;65.10
16247;DHT22;8231;50.866;7.944;2024-03-08T15:28:34;11.60;65.50
16247;DHT22;8231;50.866;7.944;2024-03-08T15:31:04;11.00;65.60
16247;DHT22;8231;50.866;7.944;2024-03-08T15:33:33;11.30;66.90
16247;DHT22;8231;50.866;7.944;2024-03-08T15:36:06;11.50;67.00
16247;DHT22;8231;50.866;7.944;2024-03-08T15:38:38;11.00;67.50
16247;DHT22;8231;50.866;7.944;2024-03-08T15:41:06;10.90;68.30
16247;DHT22;8231;50.866;7.944;2024-03-08T15:43:37;10.80;68.50
16247;DHT22;8231;50.866;7.944;2024-03-08T15:46:06;10.70;68.50
16247;DHT22;8231;50.866;7.944;2024-03-08T15:48:35;10.50;69.00
16247;DHT22;8231;50.866;7.944;2024-03-08T15:51:04;10.70;70.20
16247;DHT22;8231;50.866;7.944;2024-03-08T15:53:34;10.20;70.10
16247;DHT22;8231;50.866;7.944;2024-03-08T15:56:04;10.10;70.60
16247;DHT22;8231;50.866;7.944;2024-03-08T15:58:34;10.10;70.90
16247;DHT22;8231;50.866;7.944;2024-03-08T16:01:04;10.20;70.90
16247;DHT22;8231;50.866;7.944;2024-03-08T16:03:34;10.20;71.10
16247;DHT22;8231;50.866;7.944;2024-03-08T16:06:03;10.10;71.50